Time;durP1;ratioP1;P1;durP2;ratioP2;P2;SDS_P1;SDS_P2;PMS_P1;PMS_P2;Temp;Humidity;BMP_temperature;BMP_pressure;BME280_temperature;BME280_humidity;BME280_pressure;Samples;Min_cycle;Max_cycle;Signal;HPM_P1;HPM_P2
2023/03/03 00:00:59;;;;;;;33.75;17.67;;;;;;;0.95;66.96;100848.02;1668240;85;21263;-59
2023/03/03 00:04:21;;;;;;;28.00;15.15;;;;;;;0.99;67.07;100835.57;1875796;76;22194;-57
2023/03/03 00:07:48;;;;;;;27.73;14.80;;;;;;;0.94;67.12;100834.14;1805964;79;21189;-58
2023/03/03 00:11:24;;;;;;;26.87;14.50;;;;;;;0.94;67.14;100833.67;1784599;79;21757;-59
2023/03/03 00:19:17;;;;;;;31.25;16.82;;;;;;;0.98;67.21;100815.47;1885676;75;22245;-58
2023/03/03 00:22:49;;;;;;;30.27;17.27;;;;;;;0.93;67.27;100819.83;1828546;78;21492;-58
2023/03/03 00:26:12;;;;;;;30.65;17.87;;;;;;;0.91;67.37;100821.75;1844193;76;21148;-57
2023/03/03 00:33:43;;;;;;;26.65;14.63;;;;;;;0.89;67.34;100812.90;1845299;78;21172;-59
2023/03/03 00:37:38;;;;;;;23.10;14.70;;;;;;;0.85;67.32;100815.44;1832783;77;21376;-59
2023/03/03 00:40:52;;;;;;;27.10;14.95;;;;;;;0.83;67.32;100809.28;1826346;77;21203;-57
2023/03/03 00:44:12;;;;;;;22.77;14.47;;;;;;;0.81;67.28;100803.63;1829520;78;21307;-57
2023/03/03 00:47:37;;;;;;;23.07;14.10;;;;;;;0.78;67.32;100797.95;1845504;77;21153;-58
2023/03/03 00:50:49;;;;;;;24.67;12.93;;;;;;;0.77;67.35;100796.70;1845324;77;21538;-59
2023/03/03 00:57:27;;;;;;;21.57;13.13;;;;;;;0.76;67.52;100784.21;1845962;77;21729;-57
2023/03/03 01:00:41;;;;;;;21.35;13.68;;;;;;;0.77;67.65;100781.89;1804607;77;21160;-58
2023/03/03 01:04:01;;;;;;;22.82;14.15;;;;;;;0.80;67.72;100780.33;1844438;78;21652;-57
2023/03/03 01:07:42;;;;;;;24.20;13.85;;;;;;;0.81;67.78;100773.99;1843025;77;21195;-57
2023/03/03 01:11:23;;;;;;;26.42;15.13;;;;;;;0.83;67.76;100774.25;1845622;78;21306;-58
2023/03/03 01:14:54;;;;;;;24.35;13.75;;;;;;;0.78;67.65;100769.66;1824466;77;21192;-57
2023/03/03 01:18:19;;;;;;;23.25;13.00;;;;;;;0.75;67.67;100775.26;1823925;77;21128;-59
2023/03/03 01:21:46;;;;;;;21.25;12.95;;;;;;;0.71;67.71;100771.06;1813466;78;21180;-59
2023/03/03 01:25:10;;;;;;;24.85;13.75;;;;;;;0.75;67.76;100767.17;1845471;76;22248;-58
2023/03/03 01:28:42;;;;;;;23.32;13.50;;;;;;;0.68;67.80;100767.20;1773822;79;21216;-59
2023/03/03 01:32:01;;;;;;;20.68;13.53;;;;;;;0.69;67.86;100767.59;1765848;80;21224;-57
2023/03/03 01:35:29;;;;;;;20.62;12.43;;;;;;;0.66;67.86;100758.38;1771910;79;21343;-57
2023/03/03 01:38:50;;;;;;;25.08;13.85;;;;;;;0.65;67.91;100756.63;1772348;79;21663;-59
2023/03/03 01:42:14;;;;;;;23.42;12.70;;;;;;;0.64;67.95;100754.92;1766004;80;21299;-59
2023/03/03 01:45:40;;;;;;;23.05;13.55;;;;;;;0.63;68.01;100745.60;1772500;79;21233;-59
2023/03/03 01:49:37;;;;;;;20.60;12.65;;;;;;;0.63;68.02;100749.64;1771474;79;21316;-57
2023/03/03 01:52:52;;;;;;;19.82;13.35;;;;;;;0.61;68.02;100751.09;1771239;79;21161;-58
2023/03/03 01:56:38;;;;;;;20.85;12.78;;;;;;;0.59;68.02;100748.10;1791002;79;21405;-57
2023/03/03 01:59:59;;;;;;;27.10;17.95;;;;;;;0.60;67.95;100748.03;1844637;76;28090;-58
2023/03/03 02:03:21;;;;;;;25.65;14.73;;;;;;;0.58;67.83;100743.23;1779736;79;21158;-58
2023/03/03 02:07:14;;;;;;;23.77;14.55;;;;;;;0.62;67.79;100750.11;1805420;76;22349;-58
2023/03/03 02:10:34;;;;;;;23.22;14.13;;;;;;;0.55;67.83;100741.22;1734022;81;21370;-58
2023/03/03 02:13:51;;;;;;;29.72;14.53;;;;;;;0.51;67.91;100739.20;1760172;78;21173;-58
2023/03/03 02:17:14;;;;;;;22.73;13.83;;;;;;;0.50;67.95;100746.92;1750837;81;21237;-58
2023/03/03 02:20:59;;;;;;;24.43;13.45;;;;;;;0.46;67.95;100737.30;1759455;79;21236;-58
2023/03/03 02:24:42;;;;;;;24.60;13.13;;;;;;;0.47;68.04;100741.74;1751057;79;21792;-58
2023/03/03 02:28:08;;;;;;;21.68;12.75;;;;;;;0.43;68.11;100739.36;1643932;82;21312;-58
2023/03/03 02:31:45;;;;;;;20.55;13.22;;;;;;;0.38;68.17;100735.61;1727224;81;21393;-58
2023/03/03 02:35:19;;;;;;;22.93;12.65;;;;;;;0.35;68.23;100736.33;1758351;81;21328;-58
2023/03/03 02:39:19;;;;;;;20.70;12.45;;;;;;;0.32;68.26;100740.57;1691680;82;21765;-57
2023/03/03 02:42:45;;;;;;;18.52;12.50;;;;;;;0.28;68.23;100737.21;1686648;79;21264;-59
2023/03/03 02:46:39;;;;;;;21.35;12.45;;;;;;;0.22;68.28;100734.94;1719241;79;21200;-58
2023/03/03 02:50:07;;;;;;;20.47;13.40;;;;;;;0.19;68.33;100727.03;1733164;80;21208;-58
2023/03/03 02:53:35;;;;;;;23.75;13.65;;;;;;;0.17;68.37;100730.34;1760475;80;21350;-58
2023/03/03 02:56:58;;;;;;;22.77;13.65;;;;;;;0.14;68.39;100728.32;1765876;80;21261;-59
2023/03/03 03:00:37;;;;;;;25.92;14.43;;;;;;;0.10;68.41;100726.78;1760066;80;21189;-58
2023/03/03 03:04:18;;;;;;;24.00;13.68;;;;;;;0.06;68.46;100724.80;1741712;78;21358;-59
2023/03/03 03:07:52;;;;;;;23.10;13.65;;;;;;;0.03;68.53;100720.97;1747483;80;21236;-58
2023/03/03 03:11:34;;;;;;;20.75;13.15;;;;;;;0.00;68.63;100714.45;1734579;79;21192;-57
2023/03/03 03:15:14;;;;;;;21.68;13.10;;;;;;;-0.01;68.67;100720.30;1758736;78;21197;-58
2023/03/03 03:18:39;;;;;;;23.42;12.73;;;;;;;0.00;68.81;100718.48;1740248;79;21797;-58
2023/03/03 03:21:57;;;;;;;22.07;13.62;;;;;;;0.01;68.84;100717.51;1725490;81;21235;-58
2023/03/03 03:25:11;;;;;;;22.82;12.88;;;;;;;0.02;68.87;100711.16;1732315;83;21399;-59
2023/03/03 03:28:28;;;;;;;23.35;13.45;;;;;;;0.04;68.90;100705.20;1714542;81;21193;-59
2023/03/03 03:31:46;;;;;;;23.27;12.80;;;;;;;0.06;68.97;100704.63;1748692;77;21180;-59
2023/03/03 03:35:25;;;;;;;20.55;13.95;;;;;;;0.08;69.03;100697.28;1751837;78;21207;-59
2023/03/03 03:38:48;;;;;;;20.25;12.53;;;;;;;0.06;68.97;100699.23;1759774;80;21389;-59
2023/03/03 03:42:17;;;;;;;26.45;13.90;;;;;;;0.05;69.00;100693.45;1740400;81;21165;-59
2023/03/03 03:45:33;;;;;;;23.30;14.20;;;;;;;0.03;69.00;100699.45;1680312;81;21300;-59
2023/03/03 03:49:03;;;;;;;;;;;;;;;0.02;69.03;100689.62;1695964;81;21221;-59
2023/03/03 03:52:57;;;;;;;20.00;13.48;;;;;;;0.07;69.09;100684.80;1809900;76;22284;-58
2023/03/03 03:56:17;;;;;;;21.15;13.35;;;;;;;0.03;69.16;100686.83;1757470;77;21248;-58
2023/03/03 03:59:32;;;;;;;20.60;13.13;;;;;;;0.07;69.22;100687.50;1759829;78;21223;-59
2023/03/03 04:02:47;;;;;;;28.17;13.50;;;;;;;0.13;69.16;100691.63;1762211;77;21814;-59
2023/03/03 04:06:30;;;;;;;25.27;13.60;;;;;;;0.17;68.97;100681.89;1737953;78;21250;-57
2023/03/03 04:10:00;;;;;;;23.25;13.30;;;;;;;0.23;68.81;100685.51;1745247;78;21787;-57
2023/03/03 04:13:30;;;;;;;20.30;13.15;;;;;;;0.33;68.74;100685.75;1726474;79;21205;-59
2023/03/03 04:17:01;;;;;;;20.72;13.43;;;;;;;0.41;68.79;100676.20;1658583;81;21262;-58
2023/03/03 04:20:39;;;;;;;21.55;13.38;;;;;;;0.54;68.84;100677.56;1680861;81;21438;-59
2023/03/03 04:27:48;;;;;;;20.30;13.53;;;;;;;0.80;69.11;100673.43;1606959;85;21268;-59
2023/03/03 04:31:19;;;;;;;24.55;14.28;;;;;;;0.92;69.22;100671.20;1705950;80;22129;-60
2023/03/03 04:34:28;;;;;;;26.90;16.05;;;;;;;1.04;69.28;100672.19;1750114;82;21351;-59
2023/03/03 04:38:15;;;;;;;36.88;21.23;;;;;;;1.13;69.32;100665.66;1729168;81;21272;-59
2023/03/03 04:42:12;;;;;;;34.45;22.87;;;;;;;1.34;69.41;100661.90;1884521;74;22241;-57
2023/03/03 04:45:43;;;;;;;30.70;19.15;;;;;;;1.35;69.41;100661.78;1851563;74;21326;-58
2023/03/03 04:49:37;;;;;;;26.82;16.20;;;;;;;1.45;69.34;100668.25;1783645;79;21173;-59
2023/03/03 04:57:19;;;;;;;28.80;17.02;;;;;;;1.69;69.25;100660.67;1877938;76;22250;-57
2023/03/03 05:00:53;;;;;;;26.93;15.00;;;;;;;1.70;69.27;100663.77;1748099;81;21209;-60
2023/03/03 05:04:20;;;;;;;25.72;15.80;;;;;;;1.78;69.29;100672.99;1828647;78;21145;-59
2023/03/03 05:07:47;;;;;;;27.20;16.02;;;;;;;1.88;69.32;100666.42;1757158;81;21471;-61
2023/03/03 05:11:43;;;;;;;25.48;14.75;;;;;;;1.95;69.26;100660.96;1722472;81;21943;-61
2023/03/03 05:14:58;;;;;;;25.08;16.27;;;;;;;2.03;69.26;100672.89;1837103;78;21193;-60
2023/03/03 05:18:51;;;;;;;33.80;18.95;;;;;;;2.10;69.22;100670.12;1767030;81;21189;-60
2023/03/03 05:22:20;;;;;;;38.98;22.07;;;;;;;2.16;69.26;100674.17;1752264;80;21222;-59
2023/03/03 05:25:49;;;;;;;37.30;21.37;;;;;;;2.21;69.27;100674.70;1743427;81;21323;-60
2023/03/03 05:29:19;;;;;;;32.65;19.62;;;;;;;2.27;69.31;100669.69;1798643;79;21169;-58
2023/03/03 05:36:59;;;;;;;30.30;18.37;;;;;;;2.42;69.31;100671.24;1679986;76;21921;-59
2023/03/03 05:51:52;;;;;;;24.43;16.67;;;;;;;2.68;69.23;100669.23;1862895;76;22286;-58
2023/03/03 06:09:52;;;;;;;31.77;21.57;;;;;;;2.77;69.25;100672.09;1853244;76;38402;-60
2023/03/03 06:17:12;;;;;;;25.35;17.15;;;;;;;2.85;69.09;100670.13;1693196;82;21726;-59
2023/03/03 06:25:09;;;;;;;25.23;15.85;;;;;;;2.88;69.19;100676.64;1706077;83;21287;-59
2023/03/03 06:29:26;;;;;;;26.45;16.62;;;;;;;2.94;69.26;100677.51;1672235;83;21840;-56
2023/03/03 06:43:39;;;;;;;27.75;17.95;;;;;;;3.24;69.32;100653.44;1888313;74;22259;-59
2023/03/03 06:58:36;;;;;;;44.35;25.75;;;;;;;3.59;69.47;100660.92;1784904;78;20802;-59
2023/03/03 07:02:15;;;;;;;29.48;17.75;;;;;;;3.71;69.47;100649.08;1781455;79;21203;-56
2023/03/03 07:06:30;;;;;;;29.82;18.12;;;;;;;3.82;69.40;100638.23;1745270;75;21480;31
2023/03/03 07:10:21;;;;;;;28.25;17.42;;;;;;;3.96;69.42;100642.03;1804952;76;22011;-59
2023/03/03 07:21:02;;;;;;;41.73;28.07;;;;;;;4.33;69.32;100629.80;1763083;79;21521;-56
2023/03/03 07:24:43;;;;;;;39.88;23.95;;;;;;;4.38;69.17;100632.11;1779807;78;21240;-60
2023/03/03 07:32:15;;;;;;;39.35;22.20;;;;;;;4.49;69.16;100624.80;1693877;82;21234;-59
2023/03/03 07:35:50;;;;;;;39.63;23.40;;;;;;;4.67;69.23;100625.55;1758495;73;21400;-57
2023/03/03 07:43:11;;;;;;;31.07;19.30;;;;;;;4.92;69.18;100608.38;1830101;74;21797;-63
2023/03/03 07:46:27;;;;;;;32.08;19.00;;;;;;;5.04;69.19;100621.37;1882053;74;21690;-55
2023/03/03 07:49:48;;;;;;;30.95;18.25;;;;;;;5.13;69.08;100609.69;1858986;74;21377;-59
2023/03/03 08:28:50;;;;;;;25.80;18.20;;;;;;;5.90;68.76;100579.95;1707117;80;21160;-58
2023/03/03 09:02:34;;;;;;;24.37;14.85;;;;;;;6.43;68.55;100554.55;1820757;74;21168;-58
2023/03/03 09:10:09;;;;;;;23.62;14.68;;;;;;;6.43;68.74;100553.19;1783547;75;21310;-59
2023/03/03 09:50:53;;;;;;;23.22;15.45;;;;;;;7.01;68.33;100490.79;1803519;75;22442;-59
2023/03/03 09:54:47;;;;;;;27.65;16.05;;;;;;;7.03;68.34;100496.08;1787708;76;21217;-58
2023/03/03 10:02:31;;;;;;;23.92;15.03;;;;;;;7.21;68.27;100486.98;1694621;81;21280;-57
2023/03/03 10:06:45;;;;;;;28.07;17.82;;;;;;;7.43;68.22;100474.80;1797771;74;28228;-57
2023/03/03 10:10:10;;;;;;;;;;;;;;;7.49;68.07;100473.67;1742074;78;21282;-58
2023/03/03 10:14:13;;;;;;;23.80;16.23;;;;;;;7.61;67.96;100472.42;1727084;80;20412;-59
2023/03/03 10:18:03;;;;;;;26.07;15.13;;;;;;;7.49;67.73;100462.78;1746425;78;21269;-58
2023/03/03 10:21:51;;;;;;;22.55;14.25;;;;;;;7.45;67.81;100460.52;1718441;79;21205;-60
2023/03/03 10:25:50;;;;;;;23.73;14.98;;;;;;;7.47;67.82;100453.03;1741560;80;21296;-60
2023/03/03 10:29:37;;;;;;;29.00;17.97;;;;;;;7.45;67.72;100454.55;1751082;79;21388;-59
2023/03/03 10:33:46;;;;;;;21.17;14.10;;;;;;;7.50;67.78;100442.70;1747947;79;21232;-59
2023/03/03 10:37:55;;;;;;;20.92;13.83;;;;;;;7.43;67.60;100441.62;1748719;78;21394;-59
2023/03/03 10:41:39;;;;;;;20.40;13.13;;;;;;;7.24;67.51;100428.14;1832357;76;22293;-58
2023/03/03 10:45:10;;;;;;;19.65;12.88;;;;;;;7.08;67.43;100429.31;1786845;79;21498;-59
2023/03/03 10:49:17;;;;;;;32.88;18.92;;;;;;;7.04;67.70;100433.33;1772386;80;21398;-59
2023/03/03 10:52:57;;;;;;;21.42;13.98;;;;;;;7.03;67.71;100427.55;1772016;80;21197;-58
2023/03/03 10:56:38;;;;;;;38.83;23.70;;;;;;;6.96;67.68;100431.03;1770914;80;21268;-58
2023/03/03 11:04:41;;;;;;;26.90;18.10;;;;;;;6.85;67.73;100414.39;1769906;79;21205;-57
2023/03/03 11:08:22;;;;;;;22.17;13.32;;;;;;;6.77;67.54;100419.72;1770550;80;21247;-56
2023/03/03 11:12:01;;;;;;;21.12;13.40;;;;;;;6.63;67.55;100414.78;1751892;81;21331;-55
2023/03/03 11:16:25;;;;;;;19.32;13.50;;;;;;;6.62;67.67;100407.64;1763652;80;21235;-56
2023/03/03 11:20:06;;;;;;;20.10;13.58;;;;;;;6.67;67.78;100402.62;1753965;80;21188;-55
2023/03/03 11:23:56;;;;;;;21.85;13.75;;;;;;;6.80;67.83;100403.09;1734627;82;21447;-56
2023/03/03 11:43:26;;;;;;;24.55;15.35;;;;;;;6.81;67.39;100381.70;1682610;85;21229;-55
2023/03/03 11:51:16;;;;;;;22.13;13.22;;;;;;;6.67;67.35;100374.06;1751642;78;21173;-55
2023/03/03 11:55:27;;;;;;;20.10;13.80;;;;;;;6.60;67.23;100363.91;1740483;81;21265;-54
2023/03/03 12:06:35;;;;;;;24.27;14.90;;;;;;;6.39;67.33;100349.20;1779970;78;21337;-57
2023/03/03 12:10:36;;;;;;;23.65;14.78;;;;;;;6.37;67.32;100349.02;1771479;80;21710;-55
2023/03/03 12:14:33;;;;;;;27.13;17.40;;;;;;;6.29;67.28;100345.69;1749632;80;21742;-56
2023/03/03 12:18:05;;;;;;;25.82;15.78;;;;;;;6.14;67.23;100339.01;1756955;80;21185;-56
2023/03/03 12:35:38;;;;;;;27.10;15.60;;;;;;;5.80;67.26;100323.70;1721559;81;21216;-58
2023/03/03 12:39:29;;;;;;;21.55;13.68;;;;;;;5.76;67.28;100318.72;1699886;83;21324;-55
2023/03/03 12:43:21;;;;;;;21.57;14.40;;;;;;;5.66;67.22;100313.31;1650755;83;21734;-59
2023/03/03 12:46:54;;;;;;;24.05;15.08;;;;;;;5.59;67.26;100308.63;1632576;85;21686;-56
2023/03/03 12:50:25;;;;;;;56.02;27.32;;;;;;;5.55;67.29;100301.79;1617152;86;21280;-55
2023/03/03 13:01:54;;;;;;;29.92;19.20;;;;;;;5.69;67.46;100298.61;1717660;80;21281;-55
2023/03/03 13:05:53;;;;;;;34.60;20.50;;;;;;;5.62;67.30;100294.75;1742486;80;21248;-57
2023/03/03 13:09:43;;;;;;;28.50;17.48;;;;;;;5.53;67.29;100287.49;1758258;80;21287;-56
2023/03/03 13:13:42;;;;;;;;;;;;;;;5.51;67.43;100275.92;1722665;80;22532;-59
2023/03/03 13:17:50;;;;;;;30.48;18.35;;;;;;;5.51;67.35;100276.78;1721282;81;20431;-55
2023/03/03 13:32:03;;;;;;;36.33;18.92;;;;;;;5.21;67.24;100269.33;1833066;77;22257;-56
2023/03/03 13:36:00;;;;;;;38.30;23.47;;;;;;;5.11;67.27;100269.83;1768171;78;21223;-56
2023/03/03 13:39:26;;;;;;;41.00;25.48;;;;;;;5.09;67.37;100265.07;1796821;78;21196;-56
2023/03/03 13:42:59;;;;;;;39.05;22.90;;;;;;;5.10;67.41;100267.63;1775868;79;21820;-57
2023/03/03 13:47:19;;;;;;;38.48;21.68;;;;;;;5.15;67.44;100265.84;1766858;80;21393;-56
2023/03/03 14:02:11;;;;;;;35.20;20.60;;;;;;;5.11;67.38;100238.14;1855361;74;22797;-58
2023/03/03 14:05:58;;;;;;;49.20;25.12;;;;;;;5.04;67.42;100241.58;1847226;76;21732;-55
2023/03/03 14:09:54;;;;;;;36.38;20.48;;;;;;;5.01;67.37;100241.34;1829965;75;21188;-56
2023/03/03 14:24:29;;;;;;;35.70;21.12;;;;;;;5.04;67.42;100209.03;1840996;76;22761;-56
2023/03/03 14:28:03;;;;;;;29.77;18.57;;;;;;;4.95;67.40;100220.23;1664831;80;21784;-58
2023/03/03 14:31:31;;;;;;;32.08;17.80;;;;;;;4.94;67.39;100214.47;1775865;78;21216;-58
2023/03/03 14:34:50;;;;;;;31.02;18.57;;;;;;;4.95;67.41;100212.63;1767420;79;21204;-58
2023/03/03 14:38:51;;;;;;;35.13;20.62;;;;;;;4.95;67.39;100207.20;1755702;80;21608;-58
2023/03/03 14:42:12;;;;;;;35.03;21.65;;;;;;;4.92;67.31;100202.03;1761265;80;21248;-57
2023/03/03 14:45:45;;;;;;;41.02;21.30;;;;;;;4.87;67.29;100202.98;1765512;79;21241;-58
2023/03/03 14:49:04;;;;;;;27.13;17.57;;;;;;;4.80;67.21;100195.92;1692312;81;21279;-58
2023/03/03 14:52:33;;;;;;;28.57;17.82;;;;;;;4.72;67.19;100193.08;1687378;81;21241;-58
2023/03/03 14:56:43;;;;;;;29.67;17.55;;;;;;;4.68;67.22;100185.38;1675051;84;21221;-57
2023/03/03 15:00:28;;;;;;;29.00;17.73;;;;;;;4.65;67.27;100178.89;1766016;79;21192;-58
2023/03/03 15:04:07;;;;;;;31.82;20.10;;;;;;;4.63;67.33;100178.17;1787405;78;22132;-57
2023/03/03 15:07:48;;;;;;;33.23;21.27;;;;;;;4.63;67.37;100169.02;1782713;79;21215;-58
2023/03/03 15:11:35;;;;;;;30.77;19.07;;;;;;;4.56;67.29;100167.91;1750539;80;21201;-58
2023/03/03 15:15:00;;;;;;;32.55;20.08;;;;;;;4.52;67.29;100167.82;1730536;80;21310;-58
2023/03/03 15:23:03;;;;;;;28.80;19.75;;;;;;;4.49;67.36;100164.04;1793330;78;21236;-58
2023/03/03 15:26:56;;;;;;;35.83;22.07;;;;;;;4.49;67.37;100175.38;1729035;80;21277;-57
2023/03/03 15:30:39;;;;;;;36.40;20.30;;;;;;;4.45;67.32;100169.89;1677411;82;21862;-57
2023/03/03 15:34:23;;;;;;;31.25;19.98;;;;;;;4.39;67.31;100167.23;1719242;78;21453;-58
2023/03/03 15:38:17;;;;;;;28.00;17.98;;;;;;;4.36;67.32;100174.30;1707357;80;21210;-58
2023/03/03 15:42:06;;;;;;;28.65;18.52;;;;;;;4.33;67.24;100166.45;1753333;78;21220;-59
2023/03/03 15:45:49;;;;;;;32.25;19.45;;;;;;;4.26;67.21;100165.33;1780868;79;21216;-58
2023/03/03 15:49:20;;;;;;;30.80;19.30;;;;;;;4.22;67.29;100173.36;1790164;78;21255;-57
2023/03/03 15:53:37;;;;;;;39.10;22.65;;;;;;;4.22;67.33;100178.78;1734644;79;21251;-57
2023/03/03 15:57:15;;;;;;;35.43;22.42;;;;;;;4.20;67.30;100183.47;1752012;80;21247;-57
2023/03/03 16:01:32;;;;;;;34.43;20.65;;;;;;;4.18;67.26;100178.72;1749813;80;21350;-58
2023/03/03 16:05:23;;;;;;;34.63;20.65;;;;;;;4.14;67.25;100179.98;1781942;77;21734;-58
2023/03/03 16:09:11;;;;;;;33.50;20.37;;;;;;;4.10;67.28;100185.33;1761948;79;21769;-57
2023/03/03 16:13:02;;;;;;;30.43;19.90;;;;;;;4.10;67.33;100188.04;1757634;79;21391;-58
2023/03/03 16:16:51;;;;;;;30.88;19.57;;;;;;;4.17;67.36;100185.63;1879724;75;22687;-59
2023/03/03 16:20:34;;;;;;;31.52;19.80;;;;;;;4.09;67.32;100183.59;1799774;78;21235;-57
2023/03/03 16:24:08;;;;;;;37.83;21.40;;;;;;;4.06;67.30;100177.11;1798899;79;21704;-58
2023/03/03 16:28:02;;;;;;;31.95;20.57;;;;;;;4.04;67.33;100179.09;1803118;78;21211;-57
2023/03/03 16:31:48;;;;;;;33.35;20.12;;;;;;;4.01;67.32;100186.14;1802068;78;21326;-58
2023/03/03 16:35:39;;;;;;;41.35;26.50;;;;;;;3.98;67.31;100178.83;1800306;78;21175;-57
2023/03/03 16:39:24;;;;;;;38.60;22.95;;;;;;;3.97;67.34;100177.95;1799789;79;21342;-58
2023/03/03 16:42:46;;;;;;;32.67;21.07;;;;;;;3.99;67.37;100180.04;1798572;78;21251;-57
2023/03/03 16:46:36;;;;;;;29.30;20.15;;;;;;;3.99;67.33;100185.94;1798652;78;21186;-57
2023/03/03 16:49:57;;;;;;;34.88;22.07;;;;;;;3.96;67.32;100176.74;1802259;78;21223;-59
2023/03/03 16:53:45;;;;;;;82.65;42.08;;;;;;;3.92;67.30;100173.94;1801122;79;21148;-59
2023/03/03 16:57:25;;;;;;;42.78;24.35;;;;;;;3.89;67.30;100170.16;1802691;76;21192;-58
2023/03/03 17:01:14;;;;;;;34.25;20.72;;;;;;;3.87;67.31;100160.83;1801987;79;21441;-57
2023/03/03 17:04:57;;;;;;;35.17;21.55;;;;;;;3.85;67.33;100164.19;1769605;78;21314;-57
2023/03/03 17:08:36;;;;;;;37.93;25.00;;;;;;;3.83;67.36;100158.54;1798762;78;21376;-59
2023/03/03 17:12:31;;;;;;;41.00;25.20;;;;;;;3.82;67.37;100159.02;1803019;78;21216;-59
2023/03/03 17:17:02;;;;;;;38.65;23.70;;;;;;;3.86;67.41;100155.06;1841791;76;22744;-57
2023/03/03 17:21:02;;;;;;;37.03;23.92;;;;;;;3.79;67.41;100152.53;1786364;78;21335;-58
2023/03/03 17:24:45;;;;;;;32.38;21.17;;;;;;;3.79;67.39;100149.83;1856706;76;22455;-57
2023/03/03 17:28:52;;;;;;;34.45;22.02;;;;;;;3.72;67.42;100153.23;1774057;79;21761;-58
2023/03/03 17:32:23;;;;;;;32.13;21.85;;;;;;;3.70;67.42;100160.14;1766586;80;21779;-57
2023/03/03 17:35:51;;;;;;;33.28;21.25;;;;;;;3.69;67.46;100157.58;1758578;81;21361;-57
2023/03/03 17:39:30;;;;;;;31.20;20.85;;;;;;;3.68;67.42;100147.75;1758327;81;21212;-59
2023/03/03 17:43:27;;;;;;;33.65;21.27;;;;;;;3.65;67.40;100138.05;1758336;81;21749;-58
2023/03/03 17:46:58;;;;;;;34.60;19.83;;;;;;;3.62;67.43;100139.67;1757999;80;21729;-58
2023/03/03 17:50:45;;;;;;;33.10;20.48;;;;;;;3.61;67.47;100128.50;1739891;81;21248;-59
2023/03/03 17:54:31;;;;;;;31.87;19.25;;;;;;;3.62;67.52;100127.50;1741436;81;21259;-57
2023/03/03 17:58:43;;;;;;;33.13;21.90;;;;;;;3.65;67.49;100130.41;1733491;82;21794;-58
2023/03/03 18:02:55;;;;;;;35.45;21.93;;;;;;;3.61;67.43;100126.28;1756506;81;21177;-58
2023/03/03 18:06:30;;;;;;;31.42;21.68;;;;;;;3.57;67.46;100131.63;1726852;81;21347;-58
2023/03/03 18:10:53;;;;;;;32.53;20.52;;;;;;;3.54;67.51;100131.39;1769202;80;21347;-58
2023/03/03 18:14:32;;;;;;;37.78;22.25;;;;;;;3.54;67.53;100126.46;1769492;79;21193;-58
2023/03/03 18:18:24;;;;;;;39.53;24.40;;;;;;;3.54;67.58;100125.98;1758313;80;21553;-57
2023/03/03 18:21:58;;;;;;;40.50;24.85;;;;;;;3.55;67.61;100129.03;1731410;80;21264;-57
2023/03/03 18:26:11;;;;;;;37.23;23.90;;;;;;;3.57;67.63;100130.27;1758088;80;21220;-57
2023/03/03 18:33:16;;;;;;;37.28;24.32;;;;;;;3.60;67.73;100129.48;1770743;80;20534;-58
2023/03/03 18:36:50;;;;;;;40.33;25.62;;;;;;;3.63;67.77;100135.96;1770107;80;21762;-57
2023/03/03 18:40:25;;;;;;;38.95;24.60;;;;;;;3.63;67.74;100137.31;1768106;81;21240;-58
2023/03/03 18:43:56;;;;;;;44.80;29.67;;;;;;;3.63;67.74;100134.61;1772429;80;21367;-57
2023/03/03 18:47:13;;;;;;;;;;;;;;;3.63;67.75;100138.67;1777328;79;21654;-59
2023/03/03 18:50:40;;;;;;;39.95;24.02;;;;;;;3.62;67.69;100133.40;1770711;81;20183;-57
2023/03/03 18:53:43;;;;;;;33.83;21.55;;;;;;;3.59;67.75;100140.44;1771529;80;21142;-59
2023/03/03 18:57:02;;;;;;;37.35;23.45;;;;;;;3.58;67.77;100138.25;1769266;81;21198;-57
2023/03/03 19:00:24;;;;;;;37.17;23.67;;;;;;;3.56;67.77;100134.82;1768130;81;21742;-58
2023/03/03 19:04:04;;;;;;;43.15;31.07;;;;;;;3.59;67.77;100131.83;1842998;76;28585;-57
2023/03/03 19:07:49;;;;;;;41.80;24.92;;;;;;;3.59;67.68;100136.38;1694422;83;21255;-57
2023/03/03 19:12:03;;;;;;;43.73;25.68;;;;;;;3.58;67.64;100132.84;1769212;80;21671;-57
2023/03/03 19:15:48;;;;;;;41.88;25.75;;;;;;;3.55;67.69;100134.95;1771100;80;21193;-56
2023/03/03 19:19:24;;;;;;;42.08;25.55;;;;;;;3.53;67.73;100145.92;1773008;80;21319;-57
2023/03/03 19:23:00;;;;;;;44.58;27.62;;;;;;;3.52;67.78;100136.59;1772529;79;21679;-59
2023/03/03 19:26:51;;;;;;;39.48;24.37;;;;;;;3.49;67.84;100135.00;1771936;79;21208;-57
2023/03/03 19:30:39;;;;;;;41.65;25.08;;;;;;;3.49;67.91;100132.29;1773251;81;21312;-58
2023/03/03 19:34:28;;;;;;;38.88;24.23;;;;;;;3.50;67.99;100127.26;1728036;82;21370;-58
2023/03/03 19:38:13;;;;;;;39.10;24.92;;;;;;;3.60;68.06;100126.77;1861582;76;22190;-58
2023/03/03 19:42:01;;;;;;;36.55;23.85;;;;;;;3.55;68.04;100132.25;1774197;78;21726;-57
2023/03/03 19:45:45;;;;;;;35.40;23.45;;;;;;;3.54;68.01;100127.33;1756721;79;21697;-58
2023/03/03 19:49:20;;;;;;;42.10;24.37;;;;;;;3.53;68.03;100126.98;1772367;79;21213;-56
2023/03/03 19:52:46;;;;;;;35.80;23.55;;;;;;;3.52;68.06;100125.77;1768855;79;21205;-57
2023/03/03 19:56:28;;;;;;;38.33;24.65;;;;;;;3.50;68.10;100129.10;1771927;79;21197;-57
2023/03/03 19:59:57;;;;;;;37.25;22.98;;;;;;;3.51;68.15;100129.45;1771829;79;21229;-58
2023/03/03 20:03:51;;;;;;;40.00;23.60;;;;;;;3.51;68.13;100124.90;1772241;80;21248;-59
2023/03/03 20:07:49;;;;;;;37.55;22.98;;;;;;;3.51;68.14;100117.27;1772248;80;21240;-58
2023/03/03 20:11:36;;;;;;;38.28;23.80;;;;;;;3.50;68.19;100116.44;1772646;79;21197;-58
2023/03/03 20:15:37;;;;;;;42.03;24.00;;;;;;;3.51;68.20;100118.14;1772512;79;21358;-58
2023/03/03 20:19:17;;;;;;;37.08;23.38;;;;;;;3.52;68.20;100112.23;1767355;80;21297;-57
2023/03/03 20:23:30;;;;;;;37.60;22.00;;;;;;;3.50;68.21;100115.08;1772504;81;21236;-58
2023/03/03 20:27:04;;;;;;;40.00;23.42;;;;;;;3.51;68.22;100114.08;1773094;80;21390;-58
2023/03/03 20:31:05;;;;;;;34.15;21.90;;;;;;;3.46;68.23;100101.94;1772264;79;21237;-58
2023/03/03 20:34:52;;;;;;;34.73;22.37;;;;;;;3.46;68.23;100101.94;1742743;79;21142;-57
2023/03/03 20:38:29;;;;;;;36.08;22.15;;;;;;;3.46;68.23;100100.10;1769181;78;21278;-57
2023/03/03 20:42:15;;;;;;;35.95;22.82;;;;;;;3.44;68.28;100100.73;1771824;80;21241;-58
2023/03/03 20:45:46;;;;;;;39.05;22.52;;;;;;;3.45;68.33;100094.34;1773688;79;21183;-57
2023/03/03 20:49:37;;;;;;;38.83;23.42;;;;;;;3.44;68.33;100085.84;1769569;80;21339;-57
2023/03/03 20:53:06;;;;;;;35.35;21.57;;;;;;;3.40;68.34;100084.43;1771470;80;21375;-59
2023/03/03 20:56:42;;;;;;;34.23;21.20;;;;;;;3.41;68.38;100077.18;1770628;79;21881;-58
2023/03/03 21:00:21;;;;;;;32.83;21.95;;;;;;;3.45;68.38;100084.87;1846529;76;22257;-57
2023/03/03 21:03:50;;;;;;;39.30;24.30;;;;;;;3.38;68.41;100082.34;1774335;80;21323;-56
2023/03/03 21:07:06;;;;;;;36.28;23.57;;;;;;;3.41;68.49;100083.42;1772605;80;21742;-58
2023/03/03 21:10:24;;;;;;;35.83;21.95;;;;;;;3.47;68.50;100083.38;1841411;76;22238;-58
2023/03/03 21:13:53;;;;;;;33.15;21.25;;;;;;;3.42;68.50;100081.58;1774049;79;21217;-57
2023/03/03 21:17:19;;;;;;;;;;;;;;;3.43;68.43;100086.86;1774793;80;21190;-57
2023/03/03 21:20:46;;;;;;;33.65;21.02;;;;;;;3.42;68.52;100088.34;1773226;79;20186;-58
2023/03/03 21:24:22;;;;;;;32.13;19.10;;;;;;;3.44;68.48;100083.14;1864775;75;20196;-57
2023/03/03 21:27:56;;;;;;;32.13;20.60;;;;;;;3.37;68.50;100083.35;1798847;77;21141;-57
2023/03/03 21:31:24;;;;;;;31.25;21.85;;;;;;;3.35;68.50;100086.69;1725301;79;21256;-57
2023/03/03 21:34:46;;;;;;;33.63;21.65;;;;;;;3.41;68.55;100078.53;1850922;76;22296;-58
2023/03/03 21:38:08;;;;;;;35.38;21.52;;;;;;;3.36;68.58;100083.00;1749990;79;21181;-56
2023/03/03 21:41:28;;;;;;;32.70;21.87;;;;;;;3.39;68.62;100084.56;1772348;79;21744;-58
2023/03/03 21:45:06;;;;;;;34.40;21.90;;;;;;;3.40;68.63;100084.43;1771960;79;21205;-56
2023/03/03 21:48:32;;;;;;;31.45;21.20;;;;;;;3.47;68.63;100078.84;1878403;76;22167;-57